Time;durP1;ratioP1;P1;durP2;ratioP2;P2;SDS_P1;SDS_P2;PMS_P1;PMS_P2;Temp;Humidity;BMP_temperature;BMP_pressure;BME280_temperature;BME280_humidity;BME280_pressure;Samples;Min_cycle;Max_cycle;Signal;HPM_P1;HPM_P2
2023/02/04 00:01:58;;;;;;;4.37;1.47;;;;;;;2.46;100.00;101954.84;5021063;28;20280;-76
2023/02/04 00:04:23;;;;;;;4.57;1.30;;;;;;;2.47;100.00;101945.97;5026555;28;20779;-75
2023/02/04 00:06:48;;;;;;;5.68;1.60;;;;;;;2.49;100.00;101948.53;5022438;28;20057;-76
2023/02/04 00:09:15;;;;;;;1.77;1.20;;;;;;;2.47;100.00;101951.25;5016170;28;20069;-77
2023/02/04 00:11:41;;;;;;;2.60;1.15;;;;;;;2.41;100.00;101941.03;5013098;28;20052;-77
2023/02/04 00:14:07;;;;;;;4.15;1.40;;;;;;;2.55;100.00;101961.38;5010859;28;20033;-77
2023/02/04 00:16:32;;;;;;;;;;;;;;;2.55;100.00;101953.47;5025159;28;20458;-77
2023/02/04 00:18:57;;;;;;;5.50;1.30;;;;;;;2.48;100.00;101941.53;5074665;23;19928;-86
2023/02/04 00:21:23;;;;;;;3.00;1.37;;;;;;;2.52;100.00;101937.81;5020448;28;20040;-86
2023/02/04 00:23:50;;;;;;;4.80;1.03;;;;;;;2.51;100.00;101909.78;5041864;28;20041;-85
2023/02/04 00:26:15;;;;;;;3.83;1.45;;;;;;;2.46;100.00;101877.53;5007685;28;20137;-85
2023/02/04 00:28:41;;;;;;;4.60;1.40;;;;;;;2.42;100.00;101844.38;5014766;28;20087;-87
2023/02/04 00:31:06;;;;;;;5.77;1.70;;;;;;;2.45;100.00;101831.84;5014176;28;20042;-87
2023/02/04 00:33:31;;;;;;;3.90;1.20;;;;;;;2.41;100.00;101803.97;5003876;28;20045;-87
2023/02/04 00:35:57;;;;;;;3.53;1.23;;;;;;;2.40;100.00;101802.25;5012041;28;20272;-86
2023/02/04 00:38:22;;;;;;;9.63;2.28;;;;;;;2.38;100.00;101784.84;5016579;28;20319;-85
2023/02/04 00:40:48;;;;;;;3.60;1.40;;;;;;;2.38;100.00;101785.69;5012787;28;20030;-85
2023/02/04 00:43:13;;;;;;;4.10;1.77;;;;;;;2.42;100.00;101775.84;5012571;28;20285;-85
2023/02/04 00:45:38;;;;;;;5.07;2.13;;;;;;;2.38;100.00;101776.94;5011340;28;20383;-85
2023/02/04 00:48:04;;;;;;;1.73;1.33;;;;;;;2.31;100.00;101750.06;5003078;28;20041;-85
2023/02/04 00:50:29;;;;;;;3.63;1.98;;;;;;;2.32;100.00;101762.31;5032041;28;20308;-85
2023/02/04 00:52:54;;;;;;;2.87;1.67;;;;;;;2.25;100.00;101761.78;5018199;28;20029;-86
2023/02/04 00:55:20;;;;;;;3.50;1.80;;;;;;;2.21;100.00;101769.94;5007324;28;20285;-85
2023/02/04 00:57:50;;;;;;;2.45;1.70;;;;;;;2.18;100.00;101785.91;5014774;28;20666;-87
2023/02/04 01:00:16;;;;;;;2.42;1.80;;;;;;;2.14;100.00;101794.94;5004663;28;20065;-87
2023/02/04 01:02:42;;;;;;;3.85;1.67;;;;;;;2.10;100.00;101795.06;5013673;28;20443;-88
2023/02/04 01:05:09;;;;;;;3.13;1.23;;;;;;;2.09;100.00;101806.56;5008893;28;20029;-87
2023/02/04 01:07:34;;;;;;;1.60;1.23;;;;;;;1.96;100.00;101796.75;5031904;28;20090;-86
2023/02/04 01:10:00;;;;;;;3.08;1.50;;;;;;;1.93;100.00;101815.34;5004927;28;20120;-87
2023/02/04 01:12:26;;;;;;;6.95;2.13;;;;;;;1.89;100.00;101822.56;5028616;28;20079;-89
2023/02/04 01:14:52;;;;;;;3.20;1.80;;;;;;;1.86;100.00;101849.06;5027518;28;20524;-89
2023/02/04 01:17:18;;;;;;;4.43;2.38;;;;;;;1.87;100.00;101866.53;5011254;28;20037;-87
2023/02/04 01:19:45;;;;;;;5.03;1.58;;;;;;;1.69;100.00;101857.84;5000025;28;20032;-88
2023/02/04 01:22:10;;;;;;;2.45;1.50;;;;;;;1.62;100.00;101875.72;5022072;28;20041;-89
2023/02/04 01:24:36;;;;;;;4.05;1.52;;;;;;;1.62;100.00;101909.94;5011166;28;20051;-87
2023/02/04 01:27:20;;;;;;;2.50;1.27;;;;;;;1.69;100.00;101932.41;5023439;28;20776;-87
2023/02/04 01:29:45;;;;;;;1.90;1.67;;;;;;;1.64;100.00;101901.97;5005656;28;20030;-88
2023/02/04 01:32:11;;;;;;;1.50;1.10;;;;;;;1.75;100.00;101919.84;5005119;28;20434;-90
2023/02/04 01:34:36;;;;;;;3.07;1.40;;;;;;;1.68;100.00;101883.28;5011165;28;20038;-87
2023/02/04 01:37:01;;;;;;;8.50;2.70;;;;;;;1.58;100.00;101874.16;5011116;28;20277;-87
2023/02/04 01:39:27;;;;;;;3.05;1.50;;;;;;;1.69;100.00;101890.28;5005312;28;20103;-88
2023/02/04 01:41:52;;;;;;;2.43;1.77;;;;;;;1.62;100.00;101867.81;5013923;28;20026;-87
2023/02/04 01:44:17;;;;;;;5.80;2.77;;;;;;;1.67;100.00;101878.97;5009363;28;20316;-87
2023/02/04 01:46:43;;;;;;;1.55;1.00;;;;;;;1.61;100.00;101849.44;5013818;28;20034;-87
2023/02/04 01:49:09;;;;;;;2.70;1.30;;;;;;;1.51;100.00;101843.81;5004194;28;20034;-86
2023/02/04 01:51:36;;;;;;;2.22;1.45;;;;;;;1.53;100.00;101852.47;5010980;28;20033;-87
2023/02/04 01:54:02;;;;;;;3.13;1.40;;;;;;;1.46;100.00;101861.63;5006741;28;20116;-87
2023/02/04 01:56:30;;;;;;;1.95;1.00;;;;;;;1.43;100.00;101838.09;5011775;28;20057;-87
2023/02/04 01:58:56;;;;;;;1.23;0.90;;;;;;;1.38;100.00;101840.06;5014442;28;20029;-90
2023/02/04 02:01:46;;;;;;;3.63;0.88;;;;;;;1.32;100.00;101843.88;5013787;28;20041;-87
2023/02/04 02:04:14;;;;;;;3.33;1.35;;;;;;;1.18;100.00;101826.13;4994445;28;20549;-88
2023/02/04 02:06:44;;;;;;;4.03;1.02;;;;;;;1.19;100.00;101853.28;5011836;28;20041;-91
2023/02/04 02:09:10;;;;;;;2.88;1.50;;;;;;;1.14;100.00;101871.06;5029997;28;20026;-87
2023/02/04 02:11:36;;;;;;;4.05;1.23;;;;;;;1.05;100.00;101894.28;5014257;28;20033;-89
2023/02/04 02:14:01;;;;;;;;;;;;;;;1.00;100.00;101913.81;5006875;28;20037;-87
2023/02/04 02:16:28;;;;;;;3.90;1.35;;;;;;;0.86;100.00;101913.59;5013953;28;19920;-88
2023/02/04 02:18:53;;;;;;;3.15;1.88;;;;;;;0.76;100.00;101950.84;5010640;28;20184;-87
2023/02/04 02:21:30;;;;;;;2.35;1.20;;;;;;;0.69;100.00;101991.47;5009492;28;20084;-87
2023/02/04 02:23:56;;;;;;;3.50;1.38;;;;;;;0.72;100.00;102020.25;5033994;28;20037;-88
2023/02/04 02:26:24;;;;;;;5.13;1.75;;;;;;;0.69;100.00;102038.78;5033911;28;20025;-86
2023/02/04 02:28:50;;;;;;;4.53;1.60;;;;;;;0.57;100.00;102034.06;5029178;28;20025;-88
2023/02/04 02:31:17;;;;;;;;;;;;;;;0.50;100.00;102053.66;5019989;28;20057;-87
2023/02/04 02:33:43;;;;;;;3.30;1.70;;;;;;;0.57;100.00;102094.53;5033434;28;19912;-88
2023/02/04 02:36:09;;;;;;;1.77;1.35;;;;;;;0.51;100.00;102100.03;5017578;28;20547;-88
2023/02/04 02:38:34;;;;;;;3.08;1.58;;;;;;;0.43;100.00;102110.00;5016595;28;20093;-87
2023/02/04 02:41:00;;;;;;;1.75;1.40;;;;;;;0.53;100.00;102137.59;5010679;28;20065;-88
2023/02/04 02:43:28;;;;;;;3.20;1.40;;;;;;;0.53;100.00;102150.75;5026442;28;20030;-88
2023/02/04 02:45:55;;;;;;;4.35;1.90;;;;;;;0.46;100.00;102158.03;5033374;28;20040;-88
2023/02/04 02:48:21;;;;;;;3.25;1.10;;;;;;;0.44;100.00;102182.66;5033659;28;20033;-88
2023/02/04 02:50:47;;;;;;;1.80;1.00;;;;;;;0.32;100.00;102192.72;5015278;28;20533;-89
2023/02/04 02:53:16;;;;;;;4.43;1.52;;;;;;;0.31;100.00;102222.56;5008772;28;20057;-88
2023/02/04 02:55:43;;;;;;;3.13;1.48;;;;;;;0.19;100.00;102230.94;5017147;28;20064;-85
2023/02/04 02:58:31;;;;;;;2.53;1.15;;;;;;;0.10;100.00;102244.41;5015148;28;20648;-88
2023/02/04 03:01:01;;;;;;;3.17;0.90;;;;;;;-0.03;100.00;102244.84;5006388;28;20033;-88
2023/02/04 03:03:31;;;;;;;1.77;1.50;;;;;;;-0.14;100.00;102256.66;5016466;28;20034;-88
2023/02/04 03:06:04;;;;;;;4.20;1.27;;;;;;;-0.27;100.00;102264.16;4997977;28;20026;-88
2023/02/04 03:08:29;;;;;;;6.68;2.00;;;;;;;-0.31;100.00;102292.25;5014745;28;20555;-87
2023/02/04 03:10:55;;;;;;;3.33;1.15;;;;;;;-0.36;100.00;102309.09;5003192;28;20021;-89
2023/02/04 03:13:21;;;;;;;3.15;1.55;;;;;;;-0.47;100.00;102317.31;5018874;28;20033;-89
2023/02/04 03:15:48;;;;;;;1.65;1.55;;;;;;;-0.55;100.00;102317.59;5017503;28;20029;-88
2023/02/04 03:18:16;;;;;;;2.90;1.83;;;;;;;-0.58;100.00;102337.84;5011413;28;20044;-89
2023/02/04 03:20:42;;;;;;;2.38;1.60;;;;;;;-0.68;100.00;102342.50;5004331;28;20180;-88
2023/02/04 03:23:09;;;;;;;2.28;1.20;;;;;;;-0.79;100.00;102363.88;5036937;28;20025;-88
2023/02/04 03:25:34;;;;;;;7.70;2.28;;;;;;;-0.86;100.00;102378.94;5036112;28;20043;-89
2023/02/04 03:28:00;;;;;;;6.95;2.00;;;;;;;-0.83;100.00;102411.22;5020375;28;20037;-88
2023/02/04 03:30:26;;;;;;;5.75;1.58;;;;;;;-0.92;100.00;102430.72;5020390;28;20116;-90
2023/02/04 03:32:52;;;;;;;4.20;1.30;;;;;;;-0.83;100.00;102466.28;5017705;28;20076;-86
2023/02/04 03:35:17;;;;;;;;;;;;;;;-0.90;100.00;102481.34;5016959;28;20071;-87
2023/02/04 03:37:43;;;;;;;3.33;1.50;;;;;;;-0.94;100.00;102491.06;5019490;28;20340;-87
2023/02/04 03:40:09;;;;;;;5.03;1.52;;;;;;;-0.95;100.00;102499.00;5028829;28;20033;-87
2023/02/04 03:42:35;;;;;;;2.40;1.25;;;;;;;-0.93;100.00;102513.78;5014884;28;20041;-88
2023/02/04 03:45:00;;;;;;;1.88;1.20;;;;;;;-0.95;100.00;102520.81;5019259;28;20044;-89
2023/02/04 03:47:26;;;;;;;2.75;1.02;;;;;;;-0.98;100.00;102530.56;5008075;28;20036;-87
2023/02/04 03:49:51;;;;;;;3.53;2.25;;;;;;;-0.97;100.00;102537.50;5014432;28;20037;-87
2023/02/04 03:52:16;;;;;;;2.80;1.20;;;;;;;-1.02;100.00;102545.50;5031335;28;20041;-88
2023/02/04 03:57:14;;;;;;;3.15;1.63;;;;;;;-1.11;100.00;102559.72;5001574;28;20128;-75
2023/02/04 03:59:40;;;;;;;3.40;1.80;;;;;;;-1.09;100.00;102581.50;5017325;28;20036;-74
2023/02/04 04:02:05;;;;;;;4.53;1.80;;;;;;;-1.11;100.00;102587.69;5003509;28;20042;-74
2023/02/04 04:04:30;;;;;;;3.72;1.60;;;;;;;-0.98;100.00;102625.78;5002233;28;20038;-75
2023/02/04 04:06:56;;;;;;;3.53;1.80;;;;;;;-0.87;100.00;102643.84;4997919;28;20291;-74
2023/02/04 04:09:21;;;;;;;3.13;1.58;;;;;;;-0.68;100.00;102676.53;5017995;28;20109;-74
2023/02/04 04:11:46;;;;;;;3.78;1.63;;;;;;;-0.57;100.00;102691.13;5002137;28;20030;-74
2023/02/04 04:14:12;;;;;;;2.03;1.48;;;;;;;-0.54;100.00;102686.66;5001555;28;20069;-74
2023/02/04 04:16:37;;;;;;;2.67;1.60;;;;;;;-0.53;100.00;102690.13;5001610;28;20045;-75
2023/02/04 04:19:03;;;;;;;5.10;2.55;;;;;;;-0.61;100.00;102689.47;5003978;28;20138;-74
2023/02/04 04:21:28;;;;;;;4.18;2.22;;;;;;;-0.54;100.00;102707.66;4984455;28;20354;-74
2023/02/04 04:23:53;;;;;;;6.53;1.85;;;;;;;-0.53;100.00;102716.38;4985478;28;20486;-74
2023/02/04 04:26:19;;;;;;;3.58;1.63;;;;;;;-0.51;100.00;102727.69;5001740;28;20551;-75
2023/02/04 04:28:44;;;;;;;2.65;1.45;;;;;;;-0.51;100.00;102727.69;5003233;28;20542;-74
2023/02/04 04:31:09;;;;;;;7.55;1.73;;;;;;;-0.53;100.00;102722.47;5018336;28;20067;-74
2023/02/04 04:33:35;;;;;;;2.80;1.83;;;;;;;-0.51;100.00;102725.91;4983949;28;20041;-74
2023/02/04 04:36:00;;;;;;;5.03;1.50;;;;;;;-0.47;100.00;102730.19;5004452;28;20433;-74
2023/02/04 04:38:25;;;;;;;2.47;1.60;;;;;;;-0.44;100.00;102722.22;5002397;28;20510;-74
2023/02/04 04:40:52;;;;;;;2.57;1.40;;;;;;;-0.48;100.00;102715.31;5002037;28;20486;-74
2023/02/04 04:43:18;;;;;;;13.45;1.77;;;;;;;-0.52;100.00;102715.47;5002914;28;20726;-74
2023/02/04 04:45:43;;;;;;;2.05;1.20;;;;;;;-0.50;100.00;102727.63;4982908;28;20054;-74
2023/02/04 04:48:09;;;;;;;5.13;1.60;;;;;;;-0.56;100.00;102730.44;5017581;28;20371;-74
2023/02/04 04:50:34;;;;;;;5.55;2.10;;;;;;;-0.64;100.00;102725.38;5001344;28;20576;-74
2023/02/04 04:52:59;;;;;;;4.03;1.67;;;;;;;-0.66;100.00;102726.31;5003065;28;20029;-74
2023/02/04 04:55:25;;;;;;;4.37;1.50;;;;;;;-0.74;100.00;102720.44;5002026;28;20510;-74
2023/02/04 04:57:50;;;;;;;3.35;1.80;;;;;;;-0.66;100.00;102728.94;5001898;28;20631;-74
2023/02/04 05:00:18;;;;;;;9.27;2.95;;;;;;;-0.60;100.00;102736.66;5002755;28;20030;-74
2023/02/04 05:02:43;;;;;;;7.90;2.42;;;;;;;-0.66;100.00;102742.94;4971436;28;20034;-74
2023/02/04 05:05:10;;;;;;;3.63;2.00;;;;;;;-0.71;100.00;102736.09;5002343;28;20550;-74
2023/02/04 05:07:35;;;;;;;;;;;;;;;-0.77;100.00;102738.88;5001505;28;20144;-75
2023/02/04 05:10:01;;;;;;;8.07;2.20;;;;;;;-0.78;100.00;102752.88;4987682;28;20092;-75
2023/02/04 05:12:26;;;;;;;4.88;2.33;;;;;;;-0.83;100.00;102758.25;5016561;28;20088;-74
2023/02/04 05:14:51;;;;;;;7.10;2.40;;;;;;;-0.85;100.00;102773.16;5002271;28;20065;-74
2023/02/04 05:17:17;;;;;;;5.88;1.88;;;;;;;-0.88;100.00;102773.25;5002308;28;20288;-74
2023/02/04 05:19:42;;;;;;;2.28;1.65;;;;;;;-0.88;100.00;102783.75;5015985;28;20038;-74
2023/02/04 05:22:07;;;;;;;3.13;1.58;;;;;;;-0.92;100.00;102782.94;5001941;28;20060;-74
2023/02/04 05:24:33;;;;;;;5.75;2.00;;;;;;;-0.93;100.00;102796.97;5002657;28;20037;-74
2023/02/04 05:26:58;;;;;;;6.70;1.67;;;;;;;-0.96;100.00;102797.06;5017523;28;20047;-74
2023/02/04 05:29:24;;;;;;;3.92;1.35;;;;;;;-0.97;100.00;102805.81;5001722;28;20029;-74
2023/02/04 05:31:49;;;;;;;5.72;1.40;;;;;;;-0.97;100.00;102804.94;5016095;28;20042;-74
2023/02/04 05:34:14;;;;;;;6.00;1.38;;;;;;;-1.05;100.00;102805.16;5013411;28;20115;-74
2023/02/04 05:36:40;;;;;;;5.65;1.48;;;;;;;-1.03;100.00;102811.22;4983456;28;20026;-74
2023/02/04 05:39:05;;;;;;;4.65;1.90;;;;;;;-1.05;100.00;102807.78;5000986;28;20064;-74
2023/02/04 05:41:30;;;;;;;4.28;1.67;;;;;;;-1.02;100.00;102812.94;5000598;28;20042;-74
2023/02/04 05:43:56;;;;;;;6.32;1.50;;;;;;;-1.06;100.00;102816.50;5001934;28;20041;-74
2023/02/04 05:46:21;;;;;;;3.50;1.38;;;;;;;-0.98;100.00;102835.56;4986825;28;20100;-74
2023/02/04 05:48:46;;;;;;;2.20;1.33;;;;;;;-0.90;100.00;102848.47;5015730;28;20033;-74
2023/02/04 05:51:12;;;;;;;4.20;2.10;;;;;;;-1.00;100.00;102847.00;5018382;28;20034;-74
2023/02/04 05:53:37;;;;;;;6.03;1.90;;;;;;;-1.07;100.00;102851.50;5015628;28;20038;-74
2023/02/04 05:56:02;;;;;;;2.63;1.20;;;;;;;-1.15;100.00;102845.56;5001712;28;20441;-74
2023/02/04 05:58:32;;;;;;;4.97;1.77;;;;;;;-1.27;100.00;102841.47;5005027;28;20038;-74
2023/02/04 06:01:01;;;;;;;5.60;1.80;;;;;;;-1.36;100.00;102837.31;4989459;28;20026;-74
2023/02/04 06:03:28;;;;;;;3.00;1.27;;;;;;;-1.37;100.00;102848.69;5018979;28;20108;-74
2023/02/04 06:05:53;;;;;;;6.22;1.55;;;;;;;-1.43;100.00;102843.56;4988845;28;20076;-74
2023/02/04 06:08:19;;;;;;;3.80;2.30;;;;;;;-1.58;100.00;102844.78;5004715;28;20018;-74
2023/02/04 06:10:45;;;;;;;8.55;2.17;;;;;;;-1.59;100.00;102847.41;4986870;28;20514;-74
2023/02/04 06:13:10;;;;;;;4.32;1.85;;;;;;;-1.64;100.00;102849.25;5021039;28;20499;-74
2023/02/04 06:15:35;;;;;;;6.10;1.60;;;;;;;-1.74;100.00;102853.84;5008900;28;20435;-74
2023/02/04 06:18:01;;;;;;;7.93;4.68;;;;;;;-1.74;100.00;102865.16;5023065;28;20119;-73
2023/02/04 06:20:26;;;;;;;7.88;3.60;;;;;;;-1.78;100.00;102868.78;4991593;28;20040;-74
2023/02/04 06:22:53;;;;;;;12.60;5.13;;;;;;;-1.83;100.00;102870.59;5022714;28;20192;-74
2023/02/04 06:25:19;;;;;;;8.57;3.42;;;;;;;-1.87;100.00;102862.81;4990587;28;20080;-73
2023/02/04 06:27:45;;;;;;;7.38;3.22;;;;;;;-1.94;100.00;102868.22;5023901;28;20886;-74
2023/02/04 06:30:10;;;;;;;6.70;2.15;;;;;;;-1.92;100.00;102876.00;5023397;28;20036;-74
2023/02/04 06:32:36;;;;;;;3.60;1.80;;;;;;;-1.95;100.00;102887.41;4992928;28;20046;-73
2023/02/04 06:35:01;;;;;;;4.13;1.83;;;;;;;-1.99;100.00;102890.09;5023663;28;20041;-74
2023/02/04 06:37:26;;;;;;;4.35;1.90;;;;;;;-1.99;100.00;102895.34;4991495;28;20060;-73
2023/02/04 06:39:53;;;;;;;6.97;2.35;;;;;;;-1.92;100.00;102912.66;5007125;28;20065;-73
2023/02/04 06:42:19;;;;;;;5.68;2.05;;;;;;;-1.91;100.00;102919.66;5045463;22;20610;-86
2023/02/04 06:44:44;;;;;;;;;;;;;;;-1.90;100.00;102916.13;5041375;28;20519;-87
2023/02/04 06:47:10;;;;;;;5.63;2.55;;;;;;;-1.95;100.00;102912.72;5055663;28;20360;-87
2023/02/04 06:49:35;;;;;;;4.57;2.20;;;;;;;-2.00;100.00;102923.28;5039393;28;20029;-88
2023/02/04 06:52:00;;;;;;;4.18;2.40;;;;;;;-2.01;100.00;102918.97;5056110;28;20025;-87
2023/02/04 06:54:26;;;;;;;5.82;3.58;;;;;;;-1.97;100.00;102918.00;5038870;28;20390;-87
2023/02/04 06:56:51;;;;;;;6.00;3.03;;;;;;;-1.99;100.00;102921.53;5054289;28;20044;-87
2023/02/04 06:59:16;;;;;;;6.00;2.92;;;;;;;-2.05;100.00;102919.03;5040788;28;20029;-86
2023/02/04 07:01:42;;;;;;;3.28;2.17;;;;;;;-1.92;100.00;102941.47;5034399;28;20131;-86
2023/02/04 07:04:07;;;;;;;5.13;2.97;;;;;;;-1.84;100.00;102954.44;5030687;28;20029;-86
2023/02/04 07:06:32;;;;;;;8.50;2.40;;;;;;;-1.82;100.00;102965.75;5065473;28;20547;-85
2023/02/04 07:08:58;;;;;;;5.35;2.40;;;;;;;-1.76;100.00;102982.19;5015405;28;20033;-87
2023/02/04 07:11:23;;;;;;;5.57;3.13;;;;;;;-1.78;100.00;102970.91;5033755;28;20030;-84
2023/02/04 07:13:48;;;;;;;4.88;3.08;;;;;;;-1.75;100.00;102975.22;5034583;28;20040;-86
2023/02/04 07:16:14;;;;;;;6.85;3.15;;;;;;;-1.58;100.00;102996.72;5034976;28;20078;-85
2023/02/04 07:18:39;;;;;;;4.05;3.28;;;;;;;-1.58;100.00;102995.84;5043275;28;20033;-85
2023/02/04 07:21:05;;;;;;;8.07;5.18;;;;;;;-1.59;100.00;103005.47;5028613;28;20037;-85
2023/02/04 07:23:30;;;;;;;5.00;3.25;;;;;;;-1.60;100.00;103000.25;5050723;28;20043;-86
2023/02/04 07:25:58;;;;;;;5.28;3.35;;;;;;;-1.70;100.00;103000.41;5048438;28;20037;-85
2023/02/04 07:28:24;;;;;;;5.93;3.10;;;;;;;-1.60;100.00;103015.97;5030940;28;20169;-84
2023/02/04 07:30:49;;;;;;;;;;;;;;;-1.62;100.00;103023.84;5035612;28;20037;-83
2023/02/04 07:33:15;;;;;;;3.55;2.35;;;;;;;-1.58;100.00;103020.28;5052409;28;20403;-85
2023/02/04 07:35:40;;;;;;;7.70;3.05;;;;;;;-1.42;100.00;103026.09;5051507;28;20032;-85
2023/02/04 07:38:05;;;;;;;5.43;2.67;;;;;;;-1.33;100.00;103025.94;5030811;28;20041;-84
2023/02/04 07:40:31;;;;;;;4.20;2.40;;;;;;;-1.00;100.00;103044.50;5036637;28;20037;-86
2023/02/04 07:42:57;;;;;;;3.42;2.05;;;;;;;-0.74;100.00;103053.59;5033053;28;20029;-85
2023/02/04 07:45:22;;;;;;;4.10;3.03;;;;;;;-0.51;100.00;103059.19;5037821;28;20028;-84
2023/02/04 07:47:48;;;;;;;8.82;4.10;;;;;;;-0.11;100.00;103089.78;5037488;28;20032;-84
2023/02/04 07:50:14;;;;;;;11.85;3.92;;;;;;;-0.18;100.00;103085.56;5022491;28;20542;-85
2023/02/04 07:52:39;;;;;;;6.55;3.22;;;;;;;-0.39;100.00;103054.56;5043486;28;20037;-85
2023/02/04 07:55:05;;;;;;;7.45;2.80;;;;;;;-0.23;100.00;103063.81;5036080;28;20098;-84
2023/02/04 07:57:31;;;;;;;5.30;2.35;;;;;;;-0.23;100.00;103069.91;5026109;28;20140;-84
2023/02/04 07:59:56;;;;;;;8.05;3.42;;;;;;;-0.09;100.00;103071.38;5052522;28;20053;-85
2023/02/04 08:02:22;;;;;;;7.25;2.25;;;;;;;0.24;100.00;103095.09;5052726;28;20029;-86
2023/02/04 08:04:47;;;;;;;4.03;1.92;;;;;;;0.24;100.00;103087.19;5048300;28;20453;-85
2023/02/04 08:07:13;;;;;;;3.27;1.97;;;;;;;0.69;100.00;103102.69;5035563;28;20120;-84
2023/02/04 08:09:38;;;;;;;2.63;1.63;;;;;;;1.27;100.00;103115.06;5037376;28;20625;-85
2023/02/04 08:12:04;;;;;;;3.93;1.77;;;;;;;1.93;100.00;103138.56;5025154;28;20025;-84
2023/02/04 08:14:29;;;;;;;2.35;1.75;;;;;;;2.36;100.00;103131.91;5035722;28;20299;-85
2023/02/04 08:16:54;;;;;;;5.50;2.78;;;;;;;2.38;100.00;103101.06;5036041;28;20029;-83
2023/02/04 08:19:20;;;;;;;7.73;2.83;;;;;;;1.92;100.00;103039.38;5026052;28;20133;-86
2023/02/04 08:21:46;;;;;;;3.88;2.03;;;;;;;1.79;100.00;103011.69;5049133;28;20040;-86
2023/02/04 08:24:12;;;;;;;4.60;2.08;;;;;;;2.04;100.00;102999.44;5033824;28;20048;-84
2023/02/04 08:26:38;;;;;;;;;;;;;;;2.39;100.00;102997.34;5022847;28;20041;-83
2023/02/04 08:29:03;;;;;;;5.20;2.33;;;;;;;2.22;100.00;102952.25;5038595;28;19967;-83
2023/02/04 08:31:29;;;;;;;2.53;1.60;;;;;;;2.10;100.00;102904.34;5024111;28;20044;-85
2023/02/04 08:33:54;;;;;;;4.00;1.87;;;;;;;2.43;100.00;102904.03;5026184;28;20026;-84
2023/02/04 08:36:19;;;;;;;3.67;2.23;;;;;;;2.82;100.00;102900.81;5027459;28;20041;-85
2023/02/04 08:38:45;;;;;;;2.67;1.48;;;;;;;3.45;100.00;102916.78;5051325;28;20040;-87
2023/02/04 08:41:10;;;;;;;3.60;1.70;;;;;;;4.27;100.00;102900.06;5030188;28;20045;-86
2023/02/04 08:43:36;;;;;;;4.00;1.97;;;;;;;5.29;100.00;102876.69;5052146;28;20037;-85
2023/02/04 08:46:01;;;;;;;3.87;1.23;;;;;;;6.11;100.00;102750.53;5051109;28;20805;-85
2023/02/04 08:48:26;;;;;;;2.60;1.30;;;;;;;7.04;100.00;102600.94;5033914;28;20271;-85
2023/02/04 08:50:52;;;;;;;2.00;1.27;;;;;;;7.70;100.00;102330.09;5030531;28;20124;-84
2023/02/04 08:53:17;;;;;;;1.83;1.30;;;;;;;7.51;100.00;101940.66;5031612;28;20086;-85
2023/02/04 08:55:43;;;;;;;4.03;1.27;;;;;;;5.88;100.00;101406.13;5048786;28;20055;-84
2023/02/04 08:58:08;;;;;;;3.27;1.40;;;;;;;4.10;100.00;101117.63;5037973;28;20091;-86
2023/02/04 09:00:33;;;;;;;2.83;1.77;;;;;;;3.49;100.00;101365.72;5030678;28;20070;-85
2023/02/04 09:02:59;;;;;;;2.20;1.57;;;;;;;3.51;100.00;101579.47;5043065;28;20051;-88
2023/02/04 09:05:24;;;;;;;2.73;1.40;;;;;;;3.65;100.00;101718.56;5065691;28;20032;-86
2023/02/04 09:08:04;;;;;;;1.88;1.13;;;;;;;4.69;100.00;101912.16;5079544;28;20374;-77
2023/02/04 09:10:29;;;;;;;4.22;1.80;;;;;;;5.21;100.00;101882.38;5069754;28;20449;-76
2023/02/04 09:12:55;;;;;;;3.17;1.03;;;;;;;6.33;100.00;101867.72;5043239;28;20029;-75
2023/02/04 09:15:22;;;;;;;1.85;1.67;;;;;;;6.71;100.00;101503.22;5040826;28;20647;-76
2023/02/04 09:17:48;;;;;;;3.03;1.30;;;;;;;6.96;100.00;101401.28;5053763;28;20040;-76
2023/02/04 09:20:14;;;;;;;2.50;1.23;;;;;;;7.38;100.00;101211.97;5024079;28;20033;-77
2023/02/04 09:22:39;;;;;;;2.60;0.85;;;;;;;8.16;100.00;101292.13;5040529;28;20037;-77
2023/02/04 09:25:05;;;;;;;2.50;0.83;;;;;;;8.27;100.00;100877.06;5041935;28;20033;-75
2023/02/04 09:27:30;;;;;;;1.83;0.93;;;;;;;8.54;100.00;100766.34;5041603;28;20037;-76
2023/02/04 09:29:56;;;;;;;1.37;0.93;;;;;;;6.54;100.00;99838.75;5040686;28;20088;-76
2023/02/04 09:32:22;;;;;;;1.90;1.20;;;;;;;5.74;100.00;100338.66;5023301;28;20135;-75
2023/02/04 09:34:47;;;;;;;1.90;0.93;;;;;;;5.25;100.00;100608.66;5040615;28;20037;-76
2023/02/04 09:37:13;;;;;;;2.20;0.70;;;;;;;4.69;100.00;100780.06;5040891;28;20446;-75
2023/02/04 09:39:38;;;;;;;4.27;2.53;;;;;;;5.89;100.00;101200.25;5039241;28;20047;-77
2023/02/04 09:42:04;;;;;;;5.93;1.77;;;;;;;6.50;100.00;101083.09;5038354;28;20045;-76
2023/02/04 09:44:29;;;;;;;5.90;1.80;;;;;;;5.32;100.00;100492.50;5040761;28;20041;-77
2023/02/04 09:46:57;;;;;;;1.83;0.55;;;;;;;6.19;100.00;100965.50;5041143;28;20299;-75
2023/02/04 09:49:24;;;;;;;3.00;0.77;;;;;;;6.90;100.00;101000.94;5023070;28;20029;-76
2023/02/04 09:51:50;;;;;;;1.90;0.82;;;;;;;8.16;100.00;100898.50;5040278;28;20144;-75
2023/02/04 09:54:18;;;;;;;5.78;1.63;;;;;;;8.97;97.80;100685.78;5039939;28;20041;-75
2023/02/04 09:56:44;;;;;;;1.65;0.88;;;;;;;6.22;94.36;99676.88;5040406;28;20040;-75
2023/02/04 09:59:12;;;;;;;3.63;1.48;;;;;;;6.03;99.09;100296.22;5040142;28;20041;-75
2023/02/04 10:01:37;;;;;;;3.97;1.88;;;;;;;7.77;99.36;100866.63;5039919;28;20032;-76
2023/02/04 10:04:03;;;;;;;4.87;1.40;;;;;;;9.02;94.72;100682.66;5040351;28;20041;-77
2023/02/04 10:06:28;;;;;;;1.60;1.00;;;;;;;8.94;92.15;100371.88;5041080;28;20288;-76
2023/02/04 10:08:55;;;;;;;3.27;1.47;;;;;;;9.78;89.23;100326.56;5021766;28;20037;-77
2023/02/04 10:11:22;;;;;;;2.88;0.95;;;;;;;9.57;86.64;99968.09;5033281;28;20291;-76
2023/02/04 10:13:50;;;;;;;3.50;1.33;;;;;;;9.05;85.78;99782.28;5035265;28;20526;-77
2023/02/04 10:16:28;;;;;;;2.13;0.80;;;;;;;8.10;85.76;99638.78;5052429;28;20115;-77
2023/02/04 10:19:06;;;;;;;1.90;1.10;;;;;;;8.04;86.05;99752.78;5024372;28;20503;-77
2023/02/04 10:21:35;;;;;;;1.58;0.90;;;;;;;8.00;85.64;99761.25;5024020;28;20033;-77
2023/02/04 10:24:10;;;;;;;5.03;0.80;;;;;;;7.46;86.45;99777.75;5019372;28;20037;-77
2023/02/04 10:26:35;;;;;;;1.27;0.80;;;;;;;7.01;87.14;99823.34;5025106;28;20048;-76
2023/02/04 10:29:04;;;;;;;1.73;1.00;;;;;;;5.55;86.69;99359.84;5027784;28;20021;-76
2023/02/04 10:31:38;;;;;;;2.00;0.90;;;;;;;4.63;90.63;99809.16;5025406;28;20039;-76
2023/02/04 10:34:20;;;;;;;5.60;1.77;;;;;;;5.19;94.30;100513.88;5020609;28;20044;-77
2023/02/04 10:36:48;;;;;;;2.72;1.45;;;;;;;4.84;94.36;100456.91;5025615;28;20025;-77
2023/02/04 10:39:23;;;;;;;13.63;6.43;;;;;;;4.81;95.39;100583.31;5025193;28;20076;-76
2023/02/04 10:41:50;;;;;;;2.83;1.17;;;;;;;4.73;96.17;100663.31;5021272;28;20037;-77
2023/02/04 10:44:25;;;;;;;3.10;1.20;;;;;;;4.60;97.00;100715.53;5026188;28;20282;-77
2023/02/04 10:47:18;;;;;;;1.50;1.02;;;;;;;4.52;98.50;100869.50;5021568;28;20402;-76
2023/02/04 10:50:05;;;;;;;2.72;1.98;;;;;;;5.18;98.81;101122.81;5025537;28;20382;-75
2023/02/04 10:52:46;;;;;;;3.35;1.63;;;;;;;5.46;96.69;100960.81;5020973;28;20033;-75
2023/02/04 10:55:16;;;;;;;4.50;1.60;;;;;;;5.88;96.43;101051.00;5022509;28;20037;-76
2023/02/04 10:57:45;;;;;;;1.45;0.70;;;;;;;5.51;94.97;100772.41;5025410;28;20513;-76
2023/02/04 11:00:22;;;;;;;2.15;1.13;;;;;;;4.10;94.08;100297.72;5025409;28;20104;-75
2023/02/04 11:03:21;;;;;;;2.17;0.90;;;;;;;4.44;97.48;100924.78;5022656;28;20034;-76
2023/02/04 11:05:47;;;;;;;3.15;0.77;;;;;;;4.85;96.78;100977.09;5018786;28;20051;-76
2023/02/04 11:08:22;;;;;;;3.42;1.17;;;;;;;3.91;96.94;100660.25;5026445;28;20139;-76
2023/02/04 11:10:56;;;;;;;4.20;2.30;;;;;;;4.11;98.63;100966.03;5022849;28;20129;-75
2023/02/04 11:13:46;;;;;;;2.38;1.20;;;;;;;4.60;98.93;101179.16;5025028;28;20280;-75
2023/02/04 11:16:29;;;;;;;3.08;1.00;;;;;;;6.00;97.12;101398.22;5006501;28;20057;-76
2023/02/04 11:19:09;;;;;;;15.30;12.00;;;;;;;5.88;91.98;100679.19;5024008;28;20119;-75
2023/02/04 11:21:35;;;;;;;2.58;0.90;;;;;;;6.08;92.89;100926.63;5022081;28;20486;-75
2023/02/04 11:24:12;;;;;;;1.00;0.73;;;;;;;7.17;89.83;100917.22;5008581;28;20036;-75
2023/02/04 11:26:43;;;;;;;1.88;1.00;;;;;;;7.48;87.44;100694.81;5022067;28;20041;-75